createdAt,value
2018-06-12T00:00:37.783Z,92.89
2018-06-12T00:01:37.768Z,92.85
2018-06-12T00:02:37.763Z,92.95
2018-06-12T00:03:37.818Z,92.56
2018-06-12T00:04:37.927Z,92.98
2018-06-12T00:05:37.737Z,93.71
2018-06-12T00:06:37.739Z,93.37
2018-06-12T00:07:37.749Z,93.51
2018-06-12T00:08:37.778Z,93.54
2018-06-12T00:09:37.771Z,93.53
2018-06-12T00:10:37.751Z,93.07
2018-06-12T00:11:37.749Z,93.97
2018-06-12T00:12:37.763Z,93.35
2018-06-12T00:13:37.756Z,93.79
2018-06-12T00:14:37.783Z,93.7
2018-06-12T00:15:37.761Z,93.91
2018-06-12T00:16:37.786Z,94.07
2018-06-12T00:17:37.807Z,93.67
2018-06-12T00:18:37.744Z,93.66
2018-06-12T00:19:37.746Z,93.91
2018-06-12T00:20:37.787Z,93.52
2018-06-12T00:21:37.740Z,93.3
2018-06-12T00:22:37.978Z,93.72
2018-06-12T00:23:37.784Z,93.17
2018-06-12T00:24:37.761Z,93.02
2018-06-12T00:25:37.762Z,93.2
2018-06-12T00:26:37.815Z,93.43
2018-06-12T00:27:38.004Z,93.28
2018-06-12T00:28:37.751Z,93
2018-06-12T00:29:37.759Z,93.09
2018-06-12T00:30:37.781Z,93.24
2018-06-12T00:31:37.750Z,93.09
2018-06-12T00:32:37.785Z,93.15
2018-06-12T00:33:37.749Z,93.73
2018-06-12T00:34:37.734Z,93.73
2018-06-12T00:35:37.751Z,93.58
2018-06-12T00:36:37.745Z,93.57
2018-06-12T00:37:37.763Z,94.02
2018-06-12T00:38:37.819Z,93.5
2018-06-12T00:39:37.940Z,93.34
2018-06-12T00:40:37.903Z,93.08
2018-06-12T00:41:37.758Z,93.47
2018-06-12T00:42:37.799Z,93.01
2018-06-12T00:43:37.788Z,93.33
2018-06-12T00:44:37.757Z,93.47
2018-06-12T00:45:37.886Z,93.48
2018-06-12T00:46:37.743Z,93.44
2018-06-12T00:47:37.730Z,93.5
2018-06-12T00:48:37.748Z,93.07
2018-06-12T00:49:37.808Z,93.2
2018-06-12T00:50:37.852Z,93.48
2018-06-12T00:51:37.737Z,93.64
2018-06-12T00:52:37.877Z,93.69
2018-06-12T00:53:37.798Z,93.49
2018-06-12T00:54:37.744Z,93.14
2018-06-12T00:55:37.853Z,93.01
2018-06-12T00:56:37.739Z,93.43
2018-06-12T00:57:37.862Z,93.47
2018-06-12T00:58:37.734Z,93.93
2018-06-12T00:59:38.091Z,93.49
2018-06-12T01:00:37.854Z,93.85
2018-06-12T01:01:37.794Z,94.08
2018-06-12T01:02:37.775Z,94
2018-06-12T01:03:37.727Z,93.78
2018-06-12T01:04:37.759Z,93.72
2018-06-12T01:05:37.724Z,94.14
2018-06-12T01:06:37.730Z,94.01
2018-06-12T01:07:37.881Z,94
2018-06-12T01:08:37.923Z,94.24
2018-06-12T01:09:37.957Z,93.88
2018-06-12T01:10:37.736Z,93.72
2018-06-12T01:11:37.750Z,94.03
2018-06-12T01:12:37.784Z,93.17
2018-06-12T01:13:37.727Z,93.25
2018-06-12T01:14:37.722Z,93.16
2018-06-12T01:15:37.741Z,93.94
2018-06-12T01:16:37.724Z,94
2018-06-12T01:17:37.723Z,93.39
2018-06-12T01:18:37.715Z,93.09
2018-06-12T01:19:37.752Z,92.85
2018-06-12T01:20:37.742Z,93.03
2018-06-12T01:21:37.730Z,93.05
2018-06-12T01:22:37.725Z,93.03
2018-06-12T01:23:37.740Z,92.42
2018-06-12T01:24:37.751Z,92.48
2018-06-12T01:25:37.770Z,91.98
2018-06-12T01:26:37.762Z,92.46
2018-06-12T01:27:37.753Z,92.24
2018-06-12T01:28:37.730Z,92.41
2018-06-12T01:29:37.782Z,91.98
2018-06-12T01:30:37.800Z,92.31
2018-06-12T01:31:37.725Z,92.28
2018-06-12T01:32:37.721Z,92.71
2018-06-12T01:33:37.753Z,92.41
2018-06-12T01:34:37.721Z,92.1
2018-06-12T01:35:37.735Z,92.5
2018-06-12T01:36:37.758Z,91.71
2018-06-12T01:37:37.831Z,91.71
2018-06-12T01:38:37.741Z,91.67
2018-06-12T01:39:37.855Z,91.35
2018-06-12T01:40:37.832Z,91.1
2018-06-12T01:41:38.328Z,91.8
2018-06-12T01:42:37.716Z,92.03
2018-06-12T01:43:38.085Z,91.32
2018-06-12T01:44:37.732Z,91.28
2018-06-12T01:45:38.000Z,92.13
2018-06-12T01:46:37.783Z,92.02
2018-06-12T01:47:37.724Z,92.08
2018-06-12T01:48:37.850Z,91.71
2018-06-12T01:49:37.714Z,91.55
2018-06-12T01:50:37.712Z,92.04
2018-06-12T01:51:37.738Z,92.41
2018-06-12T01:52:37.775Z,92.39
2018-06-12T01:53:37.743Z,91.79
2018-06-12T01:54:37.714Z,91.77
2018-06-12T01:55:37.718Z,91.8
2018-06-12T01:56:37.756Z,91.73
2018-06-12T01:57:37.716Z,91.94
2018-06-12T01:58:37.715Z,92.23
2018-06-12T01:59:37.747Z,92.34
2018-06-12T02:00:37.738Z,92.07
2018-06-12T02:01:37.876Z,92.49
2018-06-12T02:02:37.884Z,91.98
2018-06-12T02:03:38.123Z,92.46
2018-06-12T02:04:37.705Z,92.16
2018-06-12T02:05:37.711Z,92.3
2018-06-12T02:06:37.722Z,92.15
2018-06-12T02:07:37.727Z,92.38
2018-06-12T02:08:37.747Z,92.06
2018-06-12T02:09:37.717Z,91.7
2018-06-12T02:10:37.704Z,91.78
2018-06-12T02:11:37.713Z,91.96
2018-06-12T02:12:37.745Z,91.84
2018-06-12T02:13:37.776Z,91.82
2018-06-12T02:14:37.748Z,91.54
2018-06-12T02:15:37.708Z,91.1
2018-06-12T02:16:37.722Z,91.26
2018-06-12T02:17:37.725Z,91.72
2018-06-12T02:18:37.713Z,91.83
2018-06-12T02:19:37.711Z,91.45
2018-06-12T02:20:37.714Z,91.75
2018-06-12T02:21:37.978Z,91.73
2018-06-12T02:22:37.769Z,91.52
2018-06-12T02:23:37.720Z,92.08
2018-06-12T02:24:37.714Z,91.97
2018-06-12T02:25:37.975Z,92.14
2018-06-12T02:26:37.703Z,92.42
2018-06-12T02:27:37.699Z,92.12
2018-06-12T02:28:37.697Z,92.08
2018-06-12T02:29:37.700Z,92.03
2018-06-12T02:30:37.713Z,92.03
2018-06-12T02:31:37.734Z,91.9
2018-06-12T02:32:37.708Z,91.92
2018-06-12T02:33:37.726Z,91.41
2018-06-12T02:34:37.726Z,92.08
2018-06-12T02:35:37.748Z,91.91
2018-06-12T02:36:37.697Z,91.81
2018-06-12T02:37:37.733Z,91.98
2018-06-12T02:38:37.706Z,91.72
2018-06-12T02:39:37.699Z,91.73
2018-06-12T02:40:37.708Z,91.7
2018-06-12T02:41:37.692Z,91.85
2018-06-12T02:42:37.706Z,91.65
2018-06-12T02:43:37.713Z,91.99
2018-06-12T02:44:37.842Z,91.83
2018-06-12T02:45:37.736Z,91.54
2018-06-12T02:46:37.717Z,91.87
2018-06-12T02:47:37.704Z,91.25
2018-06-12T02:48:37.701Z,91.46
2018-06-12T02:49:37.719Z,91.69
2018-06-12T02:50:37.709Z,91.83
2018-06-12T02:51:37.881Z,91.94
2018-06-12T02:52:37.714Z,92.07
2018-06-12T02:53:37.890Z,92.07
2018-06-12T02:54:37.694Z,91.8
2018-06-12T02:55:37.701Z,91.55
2018-06-12T02:56:37.722Z,91.5
2018-06-12T02:57:37.702Z,91.75
2018-06-12T02:58:37.993Z,91.65
2018-06-12T02:59:37.689Z,91.45
2018-06-12T03:00:37.898Z,91.33
2018-06-12T03:01:37.727Z,91.23
2018-06-12T03:02:37.751Z,91.5
2018-06-12T03:03:37.846Z,91.46
2018-06-12T03:04:37.706Z,91.6
2018-06-12T03:05:37.703Z,91.55
2018-06-12T03:06:37.699Z,91.58
2018-06-12T03:07:37.730Z,91.86
2018-06-12T03:08:37.711Z,91.93
2018-06-12T03:09:37.745Z,91.82
2018-06-12T03:10:37.693Z,91.46
2018-06-12T03:11:37.702Z,91.42
2018-06-12T03:12:37.693Z,91.3
2018-06-12T03:13:37.697Z,91.66
2018-06-12T03:14:37.689Z,91.99
2018-06-12T03:15:37.689Z,91.97
2018-06-12T03:16:37.793Z,91.84
2018-06-12T03:17:37.734Z,91.79
2018-06-12T03:18:37.697Z,92.08
2018-06-12T03:19:37.681Z,92.43
2018-06-12T03:20:37.725Z,92.61
2018-06-12T03:21:37.674Z,92.34
2018-06-12T03:22:37.676Z,92.27
2018-06-12T03:23:37.687Z,92.64
2018-06-12T03:24:37.733Z,92.28
2018-06-12T03:25:37.705Z,92.23
2018-06-12T03:26:37.867Z,92.41
2018-06-12T03:27:37.684Z,92.42
2018-06-12T03:28:37.770Z,92.66
2018-06-12T03:29:37.731Z,92.78
2018-06-12T03:30:37.702Z,93.21
2018-06-12T03:31:37.765Z,93.1
2018-06-12T03:32:37.873Z,93.27
2018-06-12T03:33:37.882Z,93.01
2018-06-12T03:34:37.706Z,92.88
2018-06-12T03:35:37.677Z,93.01
2018-06-12T03:36:37.696Z,92.9
2018-06-12T03:37:37.685Z,92.73
2018-06-12T03:38:37.675Z,92.73
2018-06-12T03:39:37.853Z,92.21
2018-06-12T03:40:37.669Z,92.11
2018-06-12T03:41:37.670Z,92.41
2018-06-12T03:42:37.680Z,92.08
2018-06-12T03:43:37.680Z,92.12
2018-06-12T03:44:37.733Z,92.32
2018-06-12T03:45:37.692Z,92.25
2018-06-12T03:46:37.677Z,91.82
2018-06-12T03:47:37.682Z,91.69
2018-06-12T03:48:37.676Z,91.9
2018-06-12T03:49:37.685Z,92
2018-06-12T03:50:37.673Z,92.09
2018-06-12T03:51:37.685Z,91.81
2018-06-12T03:52:37.675Z,92.35
2018-06-12T03:53:37.673Z,92.02
2018-06-12T03:54:37.679Z,92.12
2018-06-12T03:55:37.679Z,91.61
2018-06-12T03:56:37.663Z,91.58
2018-06-12T03:57:37.735Z,91.84
2018-06-12T03:58:37.712Z,92.45
2018-06-12T03:59:37.902Z,92.76
2018-06-12T04:00:37.773Z,92.73
2018-06-12T04:01:37.698Z,92.64
2018-06-12T04:02:37.688Z,92.69
2018-06-12T04:03:37.719Z,93.2
2018-06-12T04:04:37.663Z,93.33
2018-06-12T04:05:37.674Z,93
2018-06-12T04:06:37.668Z,93.45
2018-06-12T04:07:37.739Z,93.38
2018-06-12T04:08:37.645Z,93.85
2018-06-12T04:09:37.665Z,94.13
2018-06-12T04:10:37.708Z,94.37
2018-06-12T04:11:37.863Z,94.57
2018-06-12T04:12:37.723Z,95.21
2018-06-12T04:13:37.675Z,95.34
2018-06-12T04:14:37.675Z,95.68
2018-06-12T04:15:37.689Z,95.26
2018-06-12T04:16:37.694Z,95.2
2018-06-12T04:17:37.714Z,94.76
2018-06-12T04:18:37.916Z,94.62
2018-06-12T04:19:37.686Z,94.66
2018-06-12T04:20:37.727Z,94.46
2018-06-12T04:21:37.652Z,94.31
2018-06-12T04:22:37.652Z,94.06
2018-06-12T04:23:37.719Z,93.46
2018-06-12T04:24:37.728Z,93.67
2018-06-12T04:25:37.660Z,93.88
2018-06-12T04:26:37.674Z,93.67
2018-06-12T04:27:37.673Z,93.96
2018-06-12T04:28:37.668Z,93.72
2018-06-12T04:29:37.883Z,93.79
2018-06-12T04:30:38.352Z,93.33
2018-06-12T04:31:38.016Z,93.38
2018-06-12T04:32:37.685Z,92.98
2018-06-12T04:33:37.673Z,93.06
2018-06-12T04:34:37.724Z,92.94
2018-06-12T04:35:37.662Z,92.38
2018-06-12T04:36:37.717Z,92.96
2018-06-12T04:37:37.667Z,92.61
2018-06-12T04:38:37.672Z,92.51
2018-06-12T04:39:37.699Z,92.59
2018-06-12T04:40:37.651Z,92.35
2018-06-12T04:41:37.664Z,92.65
2018-06-12T04:42:37.658Z,92.47
2018-06-12T04:43:37.985Z,92.29
2018-06-12T04:44:37.685Z,92.64
2018-06-12T04:45:37.713Z,93.02
2018-06-12T04:46:37.719Z,93.05
2018-06-12T04:47:37.653Z,93.12
2018-06-12T04:48:37.695Z,93.18
2018-06-12T04:49:37.677Z,93.1
2018-06-12T04:50:37.710Z,93.04
2018-06-12T04:51:37.690Z,92.75
2018-06-12T04:52:37.663Z,92.74
2018-06-12T04:53:37.662Z,92.83
2018-06-12T04:54:37.680Z,92.76
2018-06-12T04:55:37.656Z,92.67
2018-06-12T04:56:37.689Z,92.19
2018-06-12T04:57:37.651Z,92.15
2018-06-12T04:58:37.656Z,92.09
2018-06-12T04:59:37.654Z,91.86
2018-06-12T05:00:37.683Z,91.97
2018-06-12T05:01:37.639Z,91.87
2018-06-12T05:02:37.663Z,91.85
2018-06-12T05:03:37.644Z,92.04
2018-06-12T05:04:37.634Z,92.01
2018-06-12T05:05:37.716Z,91.79
2018-06-12T05:06:37.644Z,91.89
2018-06-12T05:07:37.683Z,91.66
2018-06-12T05:08:37.744Z,91.87
2018-06-12T05:09:37.650Z,91.88
2018-06-12T05:10:37.744Z,91.59
2018-06-12T05:11:37.645Z,91.86
2018-06-12T05:12:37.635Z,91.89
2018-06-12T05:13:37.667Z,91.62
2018-06-12T05:14:38.055Z,92.05
2018-06-12T05:15:37.705Z,92.35
2018-06-12T05:16:37.656Z,92.23
2018-06-12T05:17:37.652Z,92.42
2018-06-12T05:18:37.974Z,92.24
2018-06-12T05:19:38.145Z,91.99
2018-06-12T05:20:37.845Z,91.9
2018-06-12T05:21:37.950Z,91.7
2018-06-12T05:22:37.743Z,91.55
2018-06-12T05:23:37.638Z,91.34
2018-06-12T05:24:37.659Z,91.23
2018-06-12T05:25:37.820Z,91.59
2018-06-12T05:26:37.633Z,91.76
2018-06-12T05:27:37.637Z,90.97
2018-06-12T05:28:37.864Z,91.02
2018-06-12T05:29:37.631Z,90.77
2018-06-12T05:30:37.702Z,91.11
2018-06-12T05:31:37.751Z,91.13
2018-06-12T05:32:37.824Z,91.44
2018-06-12T05:33:37.760Z,91.17
2018-06-12T05:34:37.636Z,91.26
2018-06-12T05:35:37.891Z,91.43
2018-06-12T05:36:37.671Z,91.98
2018-06-12T05:37:37.638Z,92.12
2018-06-12T05:38:37.651Z,91.92
2018-06-12T05:39:37.670Z,91.91
2018-06-12T05:40:37.660Z,90.96
2018-06-12T05:41:37.651Z,91.01
2018-06-12T05:42:37.697Z,91.99
2018-06-12T05:43:37.643Z,91.83
2018-06-12T05:44:37.690Z,92.14
2018-06-12T05:45:38.003Z,92.18
2018-06-12T05:46:37.632Z,92.26
2018-06-12T05:47:37.649Z,92.68
2018-06-12T05:48:37.837Z,92.08
2018-06-12T05:49:37.655Z,91.63
2018-06-12T05:50:37.652Z,91.92
2018-06-12T05:51:37.668Z,92.39
2018-06-12T05:52:37.692Z,92.55
2018-06-12T05:53:37.725Z,92.31
2018-06-12T05:54:37.637Z,92.22
2018-06-12T05:55:37.662Z,92.32
2018-06-12T05:56:37.621Z,91.66
2018-06-12T05:57:37.631Z,91.41
2018-06-12T05:58:37.633Z,91.8
2018-06-12T05:59:37.630Z,91.26
2018-06-12T06:00:37.636Z,91.03
2018-06-12T06:01:37.664Z,91.49
2018-06-12T06:02:37.660Z,91.52
2018-06-12T06:03:37.623Z,91.67
2018-06-12T06:04:37.644Z,91.57
2018-06-12T06:05:37.629Z,91.58
2018-06-12T06:06:37.636Z,92.07
2018-06-12T06:07:37.643Z,91.89
2018-06-12T06:08:37.637Z,92.52
2018-06-12T06:09:37.630Z,91.57
2018-06-12T06:10:37.680Z,91.92
2018-06-12T06:11:37.643Z,91.96
2018-06-12T06:12:37.676Z,91.18
2018-06-12T06:13:37.666Z,91.8
2018-06-12T06:14:37.638Z,91.87
2018-06-12T06:15:37.630Z,91.92
2018-06-12T06:16:37.632Z,91.32
2018-06-12T06:17:37.653Z,91.4
2018-06-12T06:18:37.649Z,91.52
2018-06-12T06:19:37.633Z,91.92
2018-06-12T06:20:37.731Z,91.91
2018-06-12T06:21:37.687Z,91.05
2018-06-12T06:22:37.770Z,91.14
2018-06-12T06:23:37.664Z,90.98
2018-06-12T06:24:37.632Z,90.56
2018-06-12T06:25:37.913Z,90.59
2018-06-12T06:26:37.691Z,90.5
2018-06-12T06:27:37.666Z,90.71
2018-06-12T06:28:37.634Z,90.84
2018-06-12T06:29:37.789Z,91.15
2018-06-12T06:30:37.647Z,90.96
2018-06-12T06:31:37.634Z,90.54
2018-06-12T06:32:37.652Z,90.94
2018-06-12T06:33:37.809Z,91.39
2018-06-12T06:34:37.818Z,91.14
2018-06-12T06:35:37.668Z,91.69
2018-06-12T06:36:37.701Z,91.42
2018-06-12T06:37:37.679Z,91.6
2018-06-12T06:38:37.727Z,91.09
2018-06-12T06:39:37.646Z,91.78
2018-06-12T06:40:37.687Z,92.12
2018-06-12T06:41:37.755Z,92.18
2018-06-12T06:42:37.669Z,92.33
2018-06-12T06:43:37.683Z,92.36
2018-06-12T06:44:37.672Z,92.08
2018-06-12T06:45:37.661Z,92.45
2018-06-12T06:46:37.692Z,92.56
2018-06-12T06:47:37.673Z,92.44
2018-06-12T06:48:37.675Z,92.18
2018-06-12T06:49:37.672Z,91.71
2018-06-12T06:50:37.678Z,91.48
2018-06-12T06:51:37.833Z,91.05
2018-06-12T06:52:37.678Z,91.33
2018-06-12T06:53:37.695Z,91.19
2018-06-12T06:54:37.661Z,91.76
2018-06-12T06:55:38.009Z,91.69
2018-06-12T06:56:37.669Z,91.98
2018-06-12T06:57:37.728Z,92.42
2018-06-12T06:58:37.683Z,92.12
2018-06-12T06:59:37.697Z,91.41
2018-06-12T07:00:37.713Z,90.67
2018-06-12T07:01:37.695Z,91.24
2018-06-12T07:02:37.701Z,91.41
2018-06-12T07:03:37.668Z,92.17
2018-06-12T07:04:37.664Z,92.1
2018-06-12T07:05:37.695Z,91.52
2018-06-12T07:06:37.683Z,90.99
2018-06-12T07:07:37.951Z,90.97
2018-06-12T07:08:37.678Z,91.45
2018-06-12T07:09:37.733Z,91.86
2018-06-12T07:10:37.667Z,91.43
2018-06-12T07:11:37.695Z,91.96
2018-06-12T07:12:37.675Z,91.55
2018-06-12T07:13:37.678Z,91.33
2018-06-12T07:14:37.683Z,91.12
2018-06-12T07:15:37.675Z,91.35
2018-06-12T07:16:37.695Z,91.16
2018-06-12T07:17:37.668Z,91.03
2018-06-12T07:18:37.678Z,90.49
2018-06-12T07:19:37.663Z,90.4
2018-06-12T07:20:37.685Z,90.33
2018-06-12T07:21:37.691Z,90.62
2018-06-12T07:22:37.688Z,90.23
2018-06-12T07:23:37.851Z,90.55
2018-06-12T07:24:37.673Z,90.4
2018-06-12T07:25:37.665Z,90.28
2018-06-12T07:26:37.727Z,90.31
2018-06-12T07:27:37.705Z,89.94
2018-06-12T07:28:37.689Z,90.06
2018-06-12T07:29:37.691Z,89.46
2018-06-12T07:30:37.693Z,89.97
2018-06-12T07:31:37.738Z,90.21
2018-06-12T07:32:37.717Z,89.78
2018-06-12T07:33:37.698Z,90.51
2018-06-12T07:34:37.908Z,90.65
2018-06-12T07:35:37.722Z,90.68
2018-06-12T07:36:37.756Z,90.48
2018-06-12T07:37:38.146Z,90.46
2018-06-12T07:38:37.714Z,89.9
2018-06-12T07:39:37.697Z,90.21
2018-06-12T07:40:37.743Z,89.97
2018-06-12T07:41:38.347Z,90.4
2018-06-12T07:42:37.726Z,90.52
2018-06-12T07:43:37.684Z,90.79
2018-06-12T07:44:37.690Z,90.73
2018-06-12T07:45:37.697Z,90.48
2018-06-12T07:46:37.711Z,90.1
2018-06-12T07:47:37.717Z,90.64
2018-06-12T07:48:37.744Z,89.56
2018-06-12T07:49:37.734Z,89.77
2018-06-12T07:50:37.676Z,89.91
2018-06-12T07:51:37.690Z,89.56
2018-06-12T07:52:37.831Z,90.12
2018-06-12T07:53:37.722Z,90.17
2018-06-12T07:54:37.673Z,90
2018-06-12T07:55:37.759Z,90.29
2018-06-12T07:56:37.736Z,90.2
2018-06-12T07:57:37.739Z,89.94
2018-06-12T07:58:37.767Z,90.11
2018-06-12T07:59:37.729Z,90.05
2018-06-12T08:00:37.716Z,90.05
2018-06-12T08:01:37.704Z,90.48
2018-06-12T08:02:37.692Z,90.78
2018-06-12T08:03:37.700Z,90.75
2018-06-12T08:04:37.728Z,90.62
2018-06-12T08:05:37.783Z,90.8
2018-06-12T08:06:37.751Z,90.27
2018-06-12T08:07:37.785Z,89.96
2018-06-12T08:08:37.870Z,90.56
2018-06-12T08:09:37.737Z,90.87
2018-06-12T08:10:37.712Z,90.49
2018-06-12T08:11:37.718Z,91.09
2018-06-12T08:12:37.714Z,91.42
2018-06-12T08:13:37.701Z,91.02
2018-06-12T08:14:37.699Z,91.23
2018-06-12T08:15:37.739Z,91.27
2018-06-12T08:16:37.758Z,90.51
2018-06-12T08:17:37.745Z,91.57
2018-06-12T08:18:37.716Z,91
2018-06-12T08:19:37.708Z,90.31
2018-06-12T08:20:37.827Z,90.69
2018-06-12T08:21:37.719Z,91.25
2018-06-12T08:22:37.858Z,91.4
2018-06-12T08:23:37.757Z,90.76
2018-06-12T08:24:37.722Z,91.39
2018-06-12T08:25:37.725Z,91.1
2018-06-12T08:26:37.705Z,90.62
2018-06-12T08:27:37.727Z,90.84
2018-06-12T08:28:37.767Z,90.5
2018-06-12T08:29:37.878Z,90.78
2018-06-12T08:30:37.767Z,91.08
2018-06-12T08:31:37.711Z,91.46
2018-06-12T08:32:37.716Z,91.47
2018-06-12T08:33:37.729Z,90.38
2018-06-12T08:34:37.826Z,90.84
2018-06-12T08:35:37.769Z,91.4
2018-06-12T08:36:37.737Z,91.33
2018-06-12T08:37:37.725Z,91.52
2018-06-12T08:38:37.731Z,90.88
2018-06-12T08:39:37.739Z,90.8
2018-06-12T08:40:37.745Z,90.87
2018-06-12T08:41:37.800Z,90.63
2018-06-12T08:42:37.826Z,90.6
2018-06-12T08:43:37.721Z,90.51
2018-06-12T08:44:38.018Z,90.74
2018-06-12T08:45:37.715Z,90.55
2018-06-12T08:46:37.733Z,90.97
2018-06-12T08:47:37.873Z,90.35
2018-06-12T08:48:37.725Z,90.55
2018-06-12T08:49:37.881Z,91.57
2018-06-12T08:50:37.940Z,91.58
2018-06-12T08:51:37.838Z,92.66
2018-06-12T08:52:37.751Z,92.96
2018-06-12T08:53:37.752Z,92.92
2018-06-12T08:54:37.721Z,92.6
2018-06-12T08:55:37.761Z,93.75
2018-06-12T08:56:37.912Z,92.41
2018-06-12T08:57:37.899Z,93.16
2018-06-12T08:58:37.747Z,93.18
2018-06-12T08:59:37.727Z,93.79
2018-06-12T09:00:37.725Z,95.02
2018-06-12T09:01:37.771Z,95.97
2018-06-12T09:02:37.897Z,96.22
2018-06-12T09:03:37.741Z,96
2018-06-12T09:04:37.887Z,97.54
2018-06-12T09:05:37.898Z,98.23
2018-06-12T09:06:37.759Z,94.56
2018-06-12T09:07:37.906Z,95.81
2018-06-12T09:08:37.777Z,96.15
2018-06-12T09:09:37.936Z,95.84
2018-06-12T09:10:37.879Z,96.02
2018-06-12T09:11:37.801Z,96.09
2018-06-12T09:12:37.767Z,97.06
2018-06-12T09:13:37.768Z,96.83
2018-06-12T09:14:37.867Z,95.24
2018-06-12T09:15:38.012Z,95.46
2018-06-12T09:16:37.814Z,96.03
2018-06-12T09:17:37.925Z,95.45
2018-06-12T09:18:37.961Z,95.35
2018-06-12T09:19:37.865Z,95.18
2018-06-12T09:20:37.784Z,95.07
2018-06-12T09:21:37.747Z,94.75
2018-06-12T09:22:37.757Z,95.04
2018-06-12T09:23:37.744Z,95.13
2018-06-12T09:24:37.756Z,95.11
2018-06-12T09:25:37.761Z,95.75
2018-06-12T09:26:38.085Z,95.47
2018-06-12T09:27:37.767Z,95.29
2018-06-12T09:28:37.752Z,96.68
2018-06-12T09:29:37.755Z,96.48
2018-06-12T09:30:37.743Z,96.2
2018-06-12T09:31:37.790Z,97.24
2018-06-12T09:32:37.752Z,96.39
2018-06-12T09:33:37.751Z,98.37
2018-06-12T09:34:37.779Z,98.56
2018-06-12T09:35:37.745Z,97.66
2018-06-12T09:36:37.741Z,96.93
2018-06-12T09:37:37.759Z,97
2018-06-12T09:38:37.763Z,96.61
2018-06-12T09:39:37.755Z,96.67
2018-06-12T09:40:37.781Z,96.67
2018-06-12T09:41:37.827Z,97.17
2018-06-12T09:42:37.761Z,98.32
2018-06-12T09:43:37.766Z,96.98
2018-06-12T09:44:37.760Z,97.31
2018-06-12T09:45:37.758Z,97.8
2018-06-12T09:46:37.743Z,97.99
2018-06-12T09:47:37.762Z,97.26
2018-06-12T09:48:37.762Z,97.81
2018-06-12T09:49:37.783Z,97.7
2018-06-12T09:50:37.750Z,97.61
2018-06-12T09:51:37.784Z,98.54
2018-06-12T09:52:37.787Z,97.81
2018-06-12T09:53:38.064Z,97.59
2018-06-12T09:54:37.844Z,96.4
2018-06-12T09:55:37.897Z,97.37
2018-06-12T09:56:37.780Z,97.24
2018-06-12T09:57:38.007Z,97.41
2018-06-12T09:58:37.979Z,97.6
2018-06-12T09:59:37.919Z,96.46
2018-06-12T10:00:37.773Z,96.23
2018-06-12T10:01:37.763Z,97.32
2018-06-12T10:02:37.765Z,96.28
2018-06-12T10:03:38.089Z,96.45
2018-06-12T10:04:37.834Z,96.66
2018-06-12T10:05:37.831Z,96.92
2018-06-12T10:06:37.783Z,96.07
2018-06-12T10:07:37.771Z,95.4
2018-06-12T10:08:38.044Z,96.46
2018-06-12T10:09:38.211Z,96.08
2018-06-12T10:10:37.918Z,96.26
2018-06-12T10:11:38.082Z,96.83
2018-06-12T10:12:37.779Z,97.05
2018-06-12T10:13:37.804Z,96.51
2018-06-12T10:14:37.957Z,95.32
2018-06-12T10:15:37.839Z,95.94
2018-06-12T10:16:37.766Z,96.88
2018-06-12T10:17:37.780Z,97.99
2018-06-12T10:18:37.774Z,97.85
2018-06-12T10:19:37.836Z,98.49
2018-06-12T10:20:37.775Z,97.3
2018-06-12T10:21:37.764Z,96.77
2018-06-12T10:22:37.919Z,96.93
2018-06-12T10:23:37.862Z,96.19
2018-06-12T10:24:38.115Z,96.77
2018-06-12T10:25:37.873Z,97.54
2018-06-12T10:26:37.887Z,97.38
2018-06-12T10:27:37.926Z,96.67
2018-06-12T10:28:37.793Z,96.34
2018-06-12T10:29:37.851Z,96.45
2018-06-12T10:30:37.909Z,96.65
2018-06-12T10:31:37.996Z,96.93
2018-06-12T10:32:37.861Z,96.45
2018-06-12T10:33:37.813Z,96.56
2018-06-12T10:34:37.956Z,96.76
2018-06-12T10:35:37.944Z,96.72
2018-06-12T10:36:37.900Z,97.1
2018-06-12T10:37:37.882Z,97.25
2018-06-12T10:38:37.903Z,96.99
2018-06-12T10:39:37.858Z,97.12
2018-06-12T10:40:37.899Z,97.11
2018-06-12T10:41:37.884Z,96.73
2018-06-12T10:42:37.890Z,96.59
2018-06-12T10:43:37.814Z,97.95
2018-06-12T10:44:37.816Z,97.9
2018-06-12T10:45:37.818Z,97.33
2018-06-12T10:46:37.822Z,97.08
2018-06-12T10:47:37.799Z,97.48
2018-06-12T10:48:37.780Z,99.17
2018-06-12T10:49:37.814Z,98.98
2018-06-12T10:50:37.775Z,99.1
2018-06-12T10:51:37.790Z,99.01
2018-06-12T10:52:37.882Z,98.93
2018-06-12T10:53:37.799Z,98.86
2018-06-12T10:54:37.790Z,97.41
2018-06-12T10:55:37.896Z,98.04
2018-06-12T10:56:37.798Z,98.94
2018-06-12T10:57:37.835Z,100
2018-06-12T10:58:37.796Z,97.68
2018-06-12T10:59:37.791Z,98.76
2018-06-12T11:00:37.809Z,99.14
2018-06-12T11:01:37.874Z,97.98
2018-06-12T11:02:37.805Z,97.66
2018-06-12T11:03:37.846Z,97.95
2018-06-12T11:04:37.917Z,98.59
2018-06-12T11:05:37.884Z,98.26
2018-06-12T11:06:37.844Z,98.35
2018-06-12T11:07:37.902Z,98.29
2018-06-12T11:08:37.968Z,98.86
2018-06-12T11:09:37.818Z,97.64
2018-06-12T11:10:37.863Z,98.19
2018-06-12T11:11:37.943Z,98.27
2018-06-12T11:12:37.834Z,98.61
2018-06-12T11:13:37.808Z,97.85
2018-06-12T11:14:37.931Z,97.97
2018-06-12T11:15:37.814Z,97.76
2018-06-12T11:16:37.926Z,97.99
2018-06-12T11:17:37.941Z,98.21
2018-06-12T11:18:37.821Z,99.82
2018-06-12T11:19:37.824Z,99.51
2018-06-12T11:20:37.934Z,99.64
2018-06-12T11:21:37.933Z,99.11
2018-06-12T11:22:37.911Z,98.3
2018-06-12T11:23:37.860Z,100
2018-06-12T11:24:37.835Z,99.93
2018-06-12T11:25:37.856Z,99.32
2018-06-12T11:26:37.913Z,99.96
2018-06-12T11:27:37.832Z,98.21
2018-06-12T11:28:37.902Z,99.32
2018-06-12T11:29:37.929Z,98.31
2018-06-12T11:30:37.846Z,98.55
2018-06-12T11:31:37.856Z,98.51
2018-06-12T11:32:37.831Z,97.61
2018-06-12T11:33:37.831Z,98.01
2018-06-12T11:34:37.916Z,97.79
2018-06-12T11:35:37.838Z,97.1
2018-06-12T11:36:37.843Z,98.07
2018-06-12T11:37:37.921Z,96.06
2018-06-12T11:38:37.940Z,96.4
2018-06-12T11:39:37.909Z,97.64
2018-06-12T11:40:37.923Z,97.15
2018-06-12T11:41:37.910Z,96.12
2018-06-12T11:42:37.901Z,96.41
2018-06-12T11:43:37.860Z,96.66
2018-06-12T11:44:37.882Z,96.85
2018-06-12T11:45:37.859Z,96.51
2018-06-12T11:46:37.854Z,94.5
2018-06-12T11:47:37.960Z,94.4
2018-06-12T11:48:37.881Z,96.79
2018-06-12T11:49:37.878Z,96.47
2018-06-12T11:50:37.912Z,96.33
2018-06-12T11:51:37.931Z,95.18
2018-06-12T11:52:38.023Z,94.7
2018-06-12T11:53:50.261Z,94.34
2018-06-12T11:54:37.847Z,92.71
2018-06-12T11:55:37.882Z,93.71
2018-06-12T11:56:37.894Z,94.3
2018-06-12T11:57:37.873Z,93.73
2018-06-12T11:58:37.834Z,93.97
2018-06-12T11:59:37.850Z,94.98
2018-06-12T12:00:37.853Z,95.18
2018-06-12T12:01:37.841Z,96.67
2018-06-12T12:02:37.836Z,95.7
2018-06-12T12:03:37.898Z,95.51
2018-06-12T12:04:37.860Z,95.6
2018-06-12T12:05:37.843Z,95.72
2018-06-12T12:06:37.865Z,95.6
2018-06-12T12:07:37.910Z,93.48
2018-06-12T12:08:37.864Z,94.06
2018-06-12T12:09:37.871Z,94.13
2018-06-12T12:10:37.885Z,94.94
2018-06-12T12:11:37.892Z,94.4
2018-06-12T12:12:37.846Z,95.09
2018-06-12T12:13:37.903Z,94.43
2018-06-12T12:14:37.913Z,95.36
2018-06-12T12:15:37.889Z,94.59
2018-06-12T12:16:37.929Z,95.64
2018-06-12T12:17:37.915Z,96.5
2018-06-12T12:18:37.870Z,95.88
2018-06-12T12:19:37.923Z,94.51
2018-06-12T12:20:37.862Z,94.89
2018-06-12T12:21:37.906Z,95.19
2018-06-12T12:22:37.901Z,95.49
2018-06-12T12:23:37.882Z,95.42
2018-06-12T12:24:37.919Z,95.83
2018-06-12T12:25:38.077Z,95.84
2018-06-12T12:26:37.964Z,95.74
2018-06-12T12:27:37.906Z,95.65
2018-06-12T12:28:37.954Z,95.06
2018-06-12T12:29:37.974Z,95.76
2018-06-12T12:30:38.040Z,93.73
2018-06-12T12:31:38.000Z,93.45
2018-06-12T12:32:37.927Z,93.89
2018-06-12T12:33:37.879Z,93.98
2018-06-12T12:34:37.967Z,93.67
2018-06-12T12:35:37.900Z,94.67
2018-06-12T12:36:37.920Z,93.64
2018-06-12T12:37:37.943Z,95.02
2018-06-12T12:38:37.917Z,96.88
2018-06-12T12:39:37.896Z,95.42
2018-06-12T12:40:37.912Z,95.47
2018-06-12T12:41:37.935Z,96.14
2018-06-12T12:42:37.851Z,95.26
2018-06-12T12:43:37.923Z,97.61
2018-06-12T12:44:37.871Z,97.23
2018-06-12T12:45:37.894Z,94.62
2018-06-12T12:46:38.225Z,94.9
2018-06-12T12:47:37.949Z,94.77
2018-06-12T12:48:37.939Z,92.15
2018-06-12T12:49:37.915Z,90.67
2018-06-12T12:50:37.883Z,94.47
2018-06-12T12:51:37.932Z,91.42
2018-06-12T12:52:37.906Z,91.48
2018-06-12T12:53:37.912Z,91.47
2018-06-12T12:54:37.887Z,92.94
2018-06-12T12:55:37.977Z,92.79
2018-06-12T12:56:37.898Z,91.17